< Cyclone 197501 1975 Season Cyclone 197503 >
Cyclone 197502 (NORAH)
General InformationTrack Information on Google Maps || ResourceGoogle EarthGE AnimationAtom FeedGeoJSON
Detalied Best Track (Time Zone = UTC)
Year Month Day Hour Lat. Long. Pressure (hPa) Wind (kt) Class Image Chart
1974 10 28 00 -7.9 105.1 1006 0 0 -- --
1974 10 28 03 -7.8 104.8 1006 0 0 -- --
1974 10 28 06 -7.8 104.6 1006 0 0 -- --
1974 10 28 09 -7.7 104.3 1006 0 0 -- --
1974 10 28 12 -7.6 104.1 1006 0 0 -- --
1974 10 28 15 -7.6 103.8 1006 0 0 -- --
1974 10 28 18 -7.5 103.5 1006 0 0 -- --
1974 10 28 21 -7.5 103.4 1006 0 0 -- --
1974 10 29 00 -7.5 103.2 1006 0 0 -- --
1974 10 29 03 -7.5 102.6 1006 0 0 -- --
1974 10 29 06 -7.5 102.1 1006 0 0 -- --
1974 10 29 09 -7.7 101.5 1005 0 0 -- --
1974 10 29 12 -7.9 101.1 1005 0 0 -- --
1974 10 29 15 -8.4 100.5 1004 0 0 -- --
1974 10 29 18 -8.9 100.1 1003 0 0 -- --
1974 10 29 21 -9.3 99.6 1003 0 0 -- --
1974 10 30 00 -9.7 99.0 1003 0 0 -- --
1974 10 30 03 -9.7 98.6 1002 0 0 -- --
1974 10 30 06 -9.8 98.1 1000 0 0 -- --
1974 10 30 09 -9.9 97.6 999 0 0 -- --
1974 10 30 12 -10.1 97.1 997 0 0 -- --
1974 10 30 15 -10.3 96.6 996 0 0 -- --
1974 10 30 18 -10.5 96.1 995 0 0 -- --
1974 10 30 21 -10.7 95.5 994 0 0 -- --
1974 10 31 00 -11.1 95.0 994 0 0 -- --
1974 10 31 03 -11.3 94.6 992 0 0 -- --
1974 10 31 06 -11.3 94.3 990 0 0 -- --
1974 10 31 09 -11.6 93.9 989 0 0 -- --
1974 10 31 12 -11.9 93.4 987 0 0 -- --
1974 10 31 15 -12.1 93.0 985 0 0 -- --
1974 10 31 18 -12.2 92.5 983 0 0 -- --
1974 10 31 21 -12.3 92.2 982 0 0 -- --
1974 11 1 00 -12.4 91.6 981 0 0 -- --
1974 11 1 03 -12.5 91.4 981 0 0 -- --
1974 11 1 06 -12.5 90.8 982 0 0 -- --
1974 11 1 09 -12.6 90.4 984 0 0 -- --
1974 11 1 12 -12.7 89.8 988 0 0 -- --
1974 11 1 15 -12.8 89.4 991 0 0 -- --
1974 11 1 18 -12.9 88.7 992 0 0 -- --
1974 11 1 21 -12.9 88.2 993 0 0 -- --
1974 11 2 00 -13.0 87.6 994 0 0 -- --
1974 11 2 03 -13.0 87.0 994 0 0 -- --
1974 11 2 06 -13.1 86.4 993 0 0 -- --
1974 11 2 09 -13.1 85.6 994 0 0 -- --
1974 11 2 12 -13.1 85.0 995 0 0 -- --
1974 11 2 15 -13.0 84.3 998 0 0 -- --
1974 11 2 18 -12.9 83.7 998 0 0 -- --
1974 11 2 21 -12.8 83.0 998 0 0 -- --
1974 11 3 00 -12.6 82.4 999 0 0 -- --
1974 11 3 03 -12.5 81.7 999 0 0 -- --
1974 11 3 06 -12.3 81.2 999 0 0 -- --
1974 11 3 09 -12.1 80.4 1000 0 0 -- --
1974 11 3 12 -11.9 79.6 1001 0 0 -- --
1974 11 3 15 -11.6 78.9 1002 0 0 -- --
1974 11 3 18 -11.4 78.3 1002 0 0 -- --
1974 11 3 21 -11.3 77.5 1003 0 0 -- --
1974 11 4 00 -11.2 76.6 1004 0 0 -- --
< Cyclone 197501 1975 Season Cyclone 197503 >

Help